sensor_id;sensor_type;location;lat;lon;timestamp;temperature;humidity
59855;DHT22;45732;52.850;6.896;2023-11-19T00:02:23;10.40;99.90
59855;DHT22;45732;52.850;6.896;2023-11-19T00:04:49;10.40;99.90
59855;DHT22;45732;52.850;6.896;2023-11-19T00:07:15;10.40;99.90
59855;DHT22;45732;52.850;6.896;2023-11-19T00:09:41;10.40;99.90
59855;DHT22;45732;52.850;6.896;2023-11-19T00:12:07;10.40;99.90
59855;DHT22;45732;52.850;6.896;2023-11-19T00:14:33;10.40;99.90
59855;DHT22;45732;52.850;6.896;2023-11-19T00:17:00;10.50;99.90
59855;DHT22;45732;52.850;6.896;2023-11-19T00:19:26;10.50;99.90
59855;DHT22;45732;52.850;6.896;2023-11-19T00:21:52;10.50;99.90
59855;DHT22;45732;52.850;6.896;2023-11-19T00:24:18;10.50;99.90
59855;DHT22;45732;52.850;6.896;2023-11-19T00:26:43;10.50;99.90
59855;DHT22;45732;52.850;6.896;2023-11-19T00:29:10;10.60;99.90
59855;DHT22;45732;52.850;6.896;2023-11-19T00:31:36;10.60;99.90
59855;DHT22;45732;52.850;6.896;2023-11-19T00:34:02;10.70;99.90
59855;DHT22;45732;52.850;6.896;2023-11-19T00:36:28;10.70;99.90
59855;DHT22;45732;52.850;6.896;2023-11-19T00:38:54;10.80;99.90
59855;DHT22;45732;52.850;6.896;2023-11-19T00:41:20;10.80;99.90
59855;DHT22;45732;52.850;6.896;2023-11-19T00:43:46;10.80;99.90
59855;DHT22;45732;52.850;6.896;2023-11-19T00:46:12;10.80;99.90
59855;DHT22;45732;52.850;6.896;2023-11-19T00:48:39;10.90;99.90
59855;DHT22;45732;52.850;6.896;2023-11-19T00:51:05;10.90;99.90
59855;DHT22;45732;52.850;6.896;2023-11-19T00:53:31;10.90;99.90
59855;DHT22;45732;52.850;6.896;2023-11-19T00:55:58;11.00;99.90
59855;DHT22;45732;52.850;6.896;2023-11-19T00:58:23;11.00;99.90
59855;DHT22;45732;52.850;6.896;2023-11-19T01:00:49;11.00;99.90
59855;DHT22;45732;52.850;6.896;2023-11-19T01:03:15;11.10;99.90
59855;DHT22;45732;52.850;6.896;2023-11-19T01:05:44;11.00;99.90
59855;DHT22;45732;52.850;6.896;2023-11-19T01:08:10;11.10;99.90
59855;DHT22;45732;52.850;6.896;2023-11-19T01:10:39;11.10;99.90
59855;DHT22;45732;52.850;6.896;2023-11-19T01:13:04;11.10;99.90
59855;DHT22;45732;52.850;6.896;2023-11-19T01:15:34;11.10;99.90
59855;DHT22;45732;52.850;6.896;2023-11-19T01:17:59;11.10;99.90
59855;DHT22;45732;52.850;6.896;2023-11-19T01:20:27;11.20;99.90
59855;DHT22;45732;52.850;6.896;2023-11-19T01:22:53;11.20;99.90
59855;DHT22;45732;52.850;6.896;2023-11-19T01:25:18;11.20;99.90
59855;DHT22;45732;52.850;6.896;2023-11-19T01:27:44;11.20;99.90
59855;DHT22;45732;52.850;6.896;2023-11-19T01:30:10;11.20;99.90
59855;DHT22;45732;52.850;6.896;2023-11-19T01:32:39;11.30;99.90
59855;DHT22;45732;52.850;6.896;2023-11-19T01:35:05;11.30;99.90
59855;DHT22;45732;52.850;6.896;2023-11-19T01:37:31;11.40;99.90
59855;DHT22;45732;52.850;6.896;2023-11-19T01:39:57;11.30;99.90
59855;DHT22;45732;52.850;6.896;2023-11-19T01:42:23;11.30;99.90
59855;DHT22;45732;52.850;6.896;2023-11-19T01:44:58;11.30;99.90
59855;DHT22;45732;52.850;6.896;2023-11-19T01:47:25;11.30;99.90
59855;DHT22;45732;52.850;6.896;2023-11-19T01:49:52;11.30;99.90
59855;DHT22;45732;52.850;6.896;2023-11-19T01:52:18;11.30;99.90
59855;DHT22;45732;52.850;6.896;2023-11-19T01:54:45;11.30;99.90
59855;DHT22;45732;52.850;6.896;2023-11-19T01:57:13;11.30;99.90
59855;DHT22;45732;52.850;6.896;2023-11-19T01:59:39;11.40;99.90
59855;DHT22;45732;52.850;6.896;2023-11-19T02:02:06;11.30;99.90
59855;DHT22;45732;52.850;6.896;2023-11-19T02:04:32;11.40;99.90
59855;DHT22;45732;52.850;6.896;2023-11-19T02:06:58;11.40;99.90
59855;DHT22;45732;52.850;6.896;2023-11-19T02:09:24;11.40;99.90
59855;DHT22;45732;52.850;6.896;2023-11-19T02:11:50;11.40;99.90
59855;DHT22;45732;52.850;6.896;2023-11-19T02:14:24;11.30;99.90
59855;DHT22;45732;52.850;6.896;2023-11-19T02:16:51;11.40;99.90
59855;DHT22;45732;52.850;6.896;2023-11-19T02:19:19;11.40;99.90
59855;DHT22;45732;52.850;6.896;2023-11-19T02:21:45;11.40;99.90
59855;DHT22;45732;52.850;6.896;2023-11-19T02:24:11;11.40;99.90
59855;DHT22;45732;52.850;6.896;2023-11-19T02:27:02;11.40;99.90
59855;DHT22;45732;52.850;6.896;2023-11-19T02:29:28;11.50;99.90
59855;DHT22;45732;52.850;6.896;2023-11-19T02:31:54;11.50;99.90
59855;DHT22;45732;52.850;6.896;2023-11-19T02:34:20;11.40;99.90
59855;DHT22;45732;52.850;6.896;2023-11-19T02:36:47;11.50;99.90
59855;DHT22;45732;52.850;6.896;2023-11-19T02:39:13;11.50;99.90
59855;DHT22;45732;52.850;6.896;2023-11-19T02:41:39;11.50;99.90
59855;DHT22;45732;52.850;6.896;2023-11-19T02:44:06;11.50;99.90
59855;DHT22;45732;52.850;6.896;2023-11-19T02:46:32;11.50;99.90
59855;DHT22;45732;52.850;6.896;2023-11-19T02:48:58;11.50;99.90
59855;DHT22;45732;52.850;6.896;2023-11-19T02:51:23;11.50;99.90
59855;DHT22;45732;52.850;6.896;2023-11-19T02:53:49;11.50;99.90
59855;DHT22;45732;52.850;6.896;2023-11-19T02:56:15;11.50;99.90
59855;DHT22;45732;52.850;6.896;2023-11-19T02:58:44;11.60;99.90
59855;DHT22;45732;52.850;6.896;2023-11-19T03:01:12;11.50;99.90
59855;DHT22;45732;52.850;6.896;2023-11-19T03:03:49;11.60;99.90
59855;DHT22;45732;52.850;6.896;2023-11-19T03:06:20;11.60;99.90
59855;DHT22;45732;52.850;6.896;2023-11-19T03:08:47;11.60;99.90
59855;DHT22;45732;52.850;6.896;2023-11-19T03:11:13;11.60;99.90
59855;DHT22;45732;52.850;6.896;2023-11-19T03:13:39;11.70;99.90
59855;DHT22;45732;52.850;6.896;2023-11-19T03:16:05;11.70;99.90
59855;DHT22;45732;52.850;6.896;2023-11-19T03:18:31;11.70;99.90
59855;DHT22;45732;52.850;6.896;2023-11-19T03:20:56;11.70;99.90
59855;DHT22;45732;52.850;6.896;2023-11-19T03:23:24;11.70;99.90
59855;DHT22;45732;52.850;6.896;2023-11-19T03:25:53;11.70;99.90
59855;DHT22;45732;52.850;6.896;2023-11-19T03:28:19;11.80;99.90
59855;DHT22;45732;52.850;6.896;2023-11-19T03:30:45;11.70;99.90
59855;DHT22;45732;52.850;6.896;2023-11-19T03:33:10;11.70;99.90
59855;DHT22;45732;52.850;6.896;2023-11-19T03:35:36;11.80;99.90
59855;DHT22;45732;52.850;6.896;2023-11-19T03:38:02;11.80;99.90
59855;DHT22;45732;52.850;6.896;2023-11-19T03:40:28;11.80;99.90
59855;DHT22;45732;52.850;6.896;2023-11-19T03:42:56;11.80;99.90
59855;DHT22;45732;52.850;6.896;2023-11-19T03:45:22;11.80;99.90
59855;DHT22;45732;52.850;6.896;2023-11-19T03:47:48;11.80;99.90
59855;DHT22;45732;52.850;6.896;2023-11-19T03:50:15;11.80;99.90
59855;DHT22;45732;52.850;6.896;2023-11-19T03:52:41;11.80;99.90
59855;DHT22;45732;52.850;6.896;2023-11-19T03:55:07;11.80;99.90
59855;DHT22;45732;52.850;6.896;2023-11-19T03:57:34;11.80;99.90
59855;DHT22;45732;52.850;6.896;2023-11-19T04:00:00;11.80;99.90
59855;DHT22;45732;52.850;6.896;2023-11-19T04:02:30;11.90;99.90
59855;DHT22;45732;52.850;6.896;2023-11-19T04:04:56;11.80;99.90
59855;DHT22;45732;52.850;6.896;2023-11-19T04:07:22;11.80;99.90
59855;DHT22;45732;52.850;6.896;2023-11-19T04:09:47;11.80;99.90
59855;DHT22;45732;52.850;6.896;2023-11-19T04:12:13;11.80;99.90
59855;DHT22;45732;52.850;6.896;2023-11-19T04:14:39;11.80;99.90
59855;DHT22;45732;52.850;6.896;2023-11-19T04:17:06;11.80;99.90
59855;DHT22;45732;52.850;6.896;2023-11-19T04:19:31;11.90;99.90
59855;DHT22;45732;52.850;6.896;2023-11-19T04:21:58;11.90;99.90
59855;DHT22;45732;52.850;6.896;2023-11-19T04:24:24;11.90;99.90
59855;DHT22;45732;52.850;6.896;2023-11-19T04:26:50;11.90;99.90
59855;DHT22;45732;52.850;6.896;2023-11-19T04:29:16;11.90;99.90
59855;DHT22;45732;52.850;6.896;2023-11-19T04:31:43;11.90;99.90
59855;DHT22;45732;52.850;6.896;2023-11-19T04:34:09;11.90;99.90
59855;DHT22;45732;52.850;6.896;2023-11-19T04:36:37;11.80;99.90
59855;DHT22;45732;52.850;6.896;2023-11-19T04:39:03;11.80;99.90
59855;DHT22;45732;52.850;6.896;2023-11-19T04:41:35;11.80;99.90
59855;DHT22;45732;52.850;6.896;2023-11-19T04:44:01;11.80;99.90
59855;DHT22;45732;52.850;6.896;2023-11-19T04:46:27;11.80;99.90
59855;DHT22;45732;52.850;6.896;2023-11-19T04:48:53;11.80;99.90
59855;DHT22;45732;52.850;6.896;2023-11-19T04:51:18;11.80;99.90
59855;DHT22;45732;52.850;6.896;2023-11-19T04:53:44;11.90;99.90
59855;DHT22;45732;52.850;6.896;2023-11-19T04:56:11;11.90;99.90
59855;DHT22;45732;52.850;6.896;2023-11-19T04:58:37;11.90;99.90
59855;DHT22;45732;52.850;6.896;2023-11-19T05:01:05;11.90;99.90
59855;DHT22;45732;52.850;6.896;2023-11-19T05:03:31;11.90;99.90
59855;DHT22;45732;52.850;6.896;2023-11-19T05:05:57;11.80;99.90
59855;DHT22;45732;52.850;6.896;2023-11-19T05:08:23;11.90;99.90
59855;DHT22;45732;52.850;6.896;2023-11-19T05:10:49;11.90;99.90
59855;DHT22;45732;52.850;6.896;2023-11-19T05:13:15;11.90;99.90
59855;DHT22;45732;52.850;6.896;2023-11-19T05:15:41;11.80;99.90
59855;DHT22;45732;52.850;6.896;2023-11-19T05:18:06;11.80;99.90
59855;DHT22;45732;52.850;6.896;2023-11-19T05:20:32;11.80;99.90
59855;DHT22;45732;52.850;6.896;2023-11-19T05:22:58;11.80;99.90
59855;DHT22;45732;52.850;6.896;2023-11-19T05:25:26;11.80;99.90
59855;DHT22;45732;52.850;6.896;2023-11-19T05:27:52;11.80;99.90
59855;DHT22;45732;52.850;6.896;2023-11-19T05:30:18;11.80;99.90
59855;DHT22;45732;52.850;6.896;2023-11-19T05:32:44;11.80;99.90
59855;DHT22;45732;52.850;6.896;2023-11-19T05:35:10;11.80;99.90
59855;DHT22;45732;52.850;6.896;2023-11-19T05:37:36;11.80;99.90
59855;DHT22;45732;52.850;6.896;2023-11-19T05:40:02;11.80;99.90
59855;DHT22;45732;52.850;6.896;2023-11-19T05:42:29;11.80;99.90
59855;DHT22;45732;52.850;6.896;2023-11-19T05:44:55;11.80;99.90
59855;DHT22;45732;52.850;6.896;2023-11-19T05:47:20;11.80;99.90
59855;DHT22;45732;52.850;6.896;2023-11-19T05:49:46;11.70;99.90
59855;DHT22;45732;52.850;6.896;2023-11-19T05:52:12;11.70;99.90
59855;DHT22;45732;52.850;6.896;2023-11-19T05:54:38;11.70;99.90
59855;DHT22;45732;52.850;6.896;2023-11-19T05:57:06;11.70;99.90
59855;DHT22;45732;52.850;6.896;2023-11-19T05:59:35;11.70;99.90
59855;DHT22;45732;52.850;6.896;2023-11-19T06:02:02;11.80;99.90
59855;DHT22;45732;52.850;6.896;2023-11-19T06:04:28;11.80;99.90
59855;DHT22;45732;52.850;6.896;2023-11-19T06:06:54;11.70;99.90
59855;DHT22;45732;52.850;6.896;2023-11-19T06:09:21;11.70;99.90
59855;DHT22;45732;52.850;6.896;2023-11-19T06:11:49;11.70;99.90
59855;DHT22;45732;52.850;6.896;2023-11-19T06:14:16;11.70;99.90
59855;DHT22;45732;52.850;6.896;2023-11-19T06:16:42;11.70;99.90
59855;DHT22;45732;52.850;6.896;2023-11-19T06:19:07;11.70;99.90
59855;DHT22;45732;52.850;6.896;2023-11-19T06:21:33;11.70;99.90
59855;DHT22;45732;52.850;6.896;2023-11-19T06:24:01;11.70;99.90
59855;DHT22;45732;52.850;6.896;2023-11-19T06:26:27;11.70;99.90
59855;DHT22;45732;52.850;6.896;2023-11-19T06:28:52;11.70;99.90
59855;DHT22;45732;52.850;6.896;2023-11-19T06:31:18;11.70;99.90
59855;DHT22;45732;52.850;6.896;2023-11-19T06:33:44;11.70;99.90
59855;DHT22;45732;52.850;6.896;2023-11-19T06:36:10;11.70;99.90
59855;DHT22;45732;52.850;6.896;2023-11-19T06:38:36;11.70;99.90
59855;DHT22;45732;52.850;6.896;2023-11-19T06:41:01;11.70;99.90
59855;DHT22;45732;52.850;6.896;2023-11-19T06:43:27;11.70;99.90
59855;DHT22;45732;52.850;6.896;2023-11-19T06:45:54;11.70;99.90
59855;DHT22;45732;52.850;6.896;2023-11-19T06:48:19;11.70;99.90
59855;DHT22;45732;52.850;6.896;2023-11-19T06:50:45;11.70;99.90
59855;DHT22;45732;52.850;6.896;2023-11-19T06:53:11;11.60;99.90
59855;DHT22;45732;52.850;6.896;2023-11-19T06:55:37;11.60;99.90
59855;DHT22;45732;52.850;6.896;2023-11-19T06:58:02;11.60;99.90
59855;DHT22;45732;52.850;6.896;2023-11-19T07:00:29;11.60;99.90
59855;DHT22;45732;52.850;6.896;2023-11-19T07:02:58;11.60;99.90
59855;DHT22;45732;52.850;6.896;2023-11-19T07:05:24;11.60;99.90
59855;DHT22;45732;52.850;6.896;2023-11-19T07:07:51;11.60;99.90
59855;DHT22;45732;52.850;6.896;2023-11-19T07:10:17;11.60;99.90
59855;DHT22;45732;52.850;6.896;2023-11-19T07:12:43;11.60;99.90
59855;DHT22;45732;52.850;6.896;2023-11-19T07:15:10;11.60;99.90
59855;DHT22;45732;52.850;6.896;2023-11-19T07:17:36;11.50;99.90
59855;DHT22;45732;52.850;6.896;2023-11-19T07:20:02;11.60;99.90
59855;DHT22;45732;52.850;6.896;2023-11-19T07:22:27;11.50;99.90
59855;DHT22;45732;52.850;6.896;2023-11-19T07:24:55;11.50;99.90
59855;DHT22;45732;52.850;6.896;2023-11-19T07:27:21;11.60;99.90
59855;DHT22;45732;52.850;6.896;2023-11-19T07:29:46;11.60;99.90
59855;DHT22;45732;52.850;6.896;2023-11-19T07:32:12;11.60;99.90
59855;DHT22;45732;52.850;6.896;2023-11-19T07:34:39;11.60;99.90
59855;DHT22;45732;52.850;6.896;2023-11-19T07:37:05;11.60;99.90
59855;DHT22;45732;52.850;6.896;2023-11-19T07:39:31;11.60;99.90
59855;DHT22;45732;52.850;6.896;2023-11-19T07:41:56;11.50;99.90
59855;DHT22;45732;52.850;6.896;2023-11-19T07:44:22;11.50;99.90
59855;DHT22;45732;52.850;6.896;2023-11-19T07:46:48;11.60;99.90
59855;DHT22;45732;52.850;6.896;2023-11-19T07:49:14;11.60;99.90
59855;DHT22;45732;52.850;6.896;2023-11-19T07:51:40;11.60;99.90
59855;DHT22;45732;52.850;6.896;2023-11-19T07:54:05;11.60;99.90
59855;DHT22;45732;52.850;6.896;2023-11-19T07:56:34;11.60;99.90
59855;DHT22;45732;52.850;6.896;2023-11-19T07:59:02;11.60;99.90
59855;DHT22;45732;52.850;6.896;2023-11-19T08:01:27;11.60;99.90
59855;DHT22;45732;52.850;6.896;2023-11-19T08:03:53;11.60;99.90
59855;DHT22;45732;52.850;6.896;2023-11-19T08:06:19;11.60;99.90
59855;DHT22;45732;52.850;6.896;2023-11-19T08:08:45;11.60;99.90
59855;DHT22;45732;52.850;6.896;2023-11-19T08:11:11;11.60;99.90
59855;DHT22;45732;52.850;6.896;2023-11-19T08:13:36;11.60;99.90
59855;DHT22;45732;52.850;6.896;2023-11-19T08:16:02;11.60;99.90
59855;DHT22;45732;52.850;6.896;2023-11-19T08:18:28;11.60;99.90
59855;DHT22;45732;52.850;6.896;2023-11-19T08:20:53;11.60;99.90
59855;DHT22;45732;52.850;6.896;2023-11-19T08:23:20;11.60;99.90
59855;DHT22;45732;52.850;6.896;2023-11-19T08:25:46;11.60;99.90
59855;DHT22;45732;52.850;6.896;2023-11-19T08:28:11;11.60;99.90
59855;DHT22;45732;52.850;6.896;2023-11-19T08:30:38;11.60;99.90
59855;DHT22;45732;52.850;6.896;2023-11-19T08:33:03;11.60;99.90
59855;DHT22;45732;52.850;6.896;2023-11-19T08:35:31;11.60;99.90
59855;DHT22;45732;52.850;6.896;2023-11-19T08:37:57;11.60;99.90
59855;DHT22;45732;52.850;6.896;2023-11-19T08:40:24;11.70;99.90
59855;DHT22;45732;52.850;6.896;2023-11-19T08:42:53;11.70;99.90
59855;DHT22;45732;52.850;6.896;2023-11-19T08:45:18;11.60;99.90
59855;DHT22;45732;52.850;6.896;2023-11-19T08:47:44;11.60;99.90
59855;DHT22;45732;52.850;6.896;2023-11-19T08:50:11;11.50;99.90
59855;DHT22;45732;52.850;6.896;2023-11-19T08:52:37;11.50;99.90
59855;DHT22;45732;52.850;6.896;2023-11-19T08:55:04;11.50;99.90
59855;DHT22;45732;52.850;6.896;2023-11-19T08:57:35;11.50;99.90
59855;DHT22;45732;52.850;6.896;2023-11-19T09:00:01;11.50;99.90
59855;DHT22;45732;52.850;6.896;2023-11-19T09:02:28;11.50;99.90
59855;DHT22;45732;52.850;6.896;2023-11-19T09:04:53;11.40;99.90
59855;DHT22;45732;52.850;6.896;2023-11-19T09:07:19;11.50;99.90
59855;DHT22;45732;52.850;6.896;2023-11-19T09:09:45;11.50;99.90
59855;DHT22;45732;52.850;6.896;2023-11-19T09:12:11;11.40;99.90
59855;DHT22;45732;52.850;6.896;2023-11-19T09:14:36;11.50;99.90
59855;DHT22;45732;52.850;6.896;2023-11-19T09:17:02;11.40;99.90
59855;DHT22;45732;52.850;6.896;2023-11-19T09:19:28;11.40;99.90
59855;DHT22;45732;52.850;6.896;2023-11-19T09:21:54;11.40;99.90
59855;DHT22;45732;52.850;6.896;2023-11-19T09:24:19;11.40;99.90
59855;DHT22;45732;52.850;6.896;2023-11-19T09:26:45;11.40;99.90
59855;DHT22;45732;52.850;6.896;2023-11-19T09:29:11;11.40;99.90
59855;DHT22;45732;52.850;6.896;2023-11-19T09:31:40;11.40;99.90
59855;DHT22;45732;52.850;6.896;2023-11-19T09:34:06;11.40;99.90
59855;DHT22;45732;52.850;6.896;2023-11-19T09:36:31;11.40;99.90
59855;DHT22;45732;52.850;6.896;2023-11-19T09:38:57;11.50;99.90
59855;DHT22;45732;52.850;6.896;2023-11-19T09:41:23;11.50;99.90
59855;DHT22;45732;52.850;6.896;2023-11-19T09:43:50;11.50;99.90
59855;DHT22;45732;52.850;6.896;2023-11-19T09:46:16;11.60;99.90
59855;DHT22;45732;52.850;6.896;2023-11-19T09:48:43;11.60;99.90
59855;DHT22;45732;52.850;6.896;2023-11-19T09:51:10;11.60;99.90
59855;DHT22;45732;52.850;6.896;2023-11-19T09:53:37;11.60;99.90
59855;DHT22;45732;52.850;6.896;2023-11-19T09:56:05;11.60;99.90
59855;DHT22;45732;52.850;6.896;2023-11-19T09:58:31;11.70;99.90
59855;DHT22;45732;52.850;6.896;2023-11-19T10:00:58;11.70;99.90
59855;DHT22;45732;52.850;6.896;2023-11-19T10:03:33;11.70;99.90
59855;DHT22;45732;52.850;6.896;2023-11-19T10:06:00;11.70;99.90
59855;DHT22;45732;52.850;6.896;2023-11-19T10:08:26;11.80;99.90
59855;DHT22;45732;52.850;6.896;2023-11-19T10:10:52;11.80;99.90
59855;DHT22;45732;52.850;6.896;2023-11-19T10:13:18;11.80;99.90
59855;DHT22;45732;52.850;6.896;2023-11-19T10:15:44;11.80;99.90
59855;DHT22;45732;52.850;6.896;2023-11-19T10:18:09;11.80;99.90
59855;DHT22;45732;52.850;6.896;2023-11-19T10:20:41;11.80;99.90
59855;DHT22;45732;52.850;6.896;2023-11-19T10:23:07;11.80;99.90
59855;DHT22;45732;52.850;6.896;2023-11-19T10:25:33;11.80;99.90
59855;DHT22;45732;52.850;6.896;2023-11-19T10:28:00;11.80;99.90
59855;DHT22;45732;52.850;6.896;2023-11-19T10:30:29;11.70;99.90
59855;DHT22;45732;52.850;6.896;2023-11-19T10:35:32;11.60;99.90
59855;DHT22;45732;52.850;6.896;2023-11-19T10:38:14;11.50;99.90
59855;DHT22;45732;52.850;6.896;2023-11-19T10:40:41;11.50;99.90
59855;DHT22;45732;52.850;6.896;2023-11-19T10:43:07;11.50;99.90
59855;DHT22;45732;52.850;6.896;2023-11-19T10:45:34;11.50;99.90
59855;DHT22;45732;52.850;6.896;2023-11-19T10:48:00;11.50;99.90
59855;DHT22;45732;52.850;6.896;2023-11-19T10:50:27;11.50;99.90
59855;DHT22;45732;52.850;6.896;2023-11-19T10:52:57;11.50;99.90
59855;DHT22;45732;52.850;6.896;2023-11-19T10:55:29;11.50;99.90
59855;DHT22;45732;52.850;6.896;2023-11-19T10:58:00;11.50;99.90
59855;DHT22;45732;52.850;6.896;2023-11-19T11:00:46;11.50;99.90
59855;DHT22;45732;52.850;6.896;2023-11-19T11:03:18;11.50;99.90
59855;DHT22;45732;52.850;6.896;2023-11-19T11:05:46;11.50;99.90
59855;DHT22;45732;52.850;6.896;2023-11-19T11:08:13;11.50;99.90
59855;DHT22;45732;52.850;6.896;2023-11-19T11:10:48;11.50;99.90
59855;DHT22;45732;52.850;6.896;2023-11-19T11:13:17;11.50;99.90
59855;DHT22;45732;52.850;6.896;2023-11-19T11:15:44;11.50;99.90
59855;DHT22;45732;52.850;6.896;2023-11-19T11:18:12;11.50;99.90
59855;DHT22;45732;52.850;6.896;2023-11-19T11:20:39;11.50;99.90
59855;DHT22;45732;52.850;6.896;2023-11-19T11:23:16;11.50;99.90
59855;DHT22;45732;52.850;6.896;2023-11-19T11:29:24;11.60;99.90
59855;DHT22;45732;52.850;6.896;2023-11-19T11:36:53;11.60;99.90
59855;DHT22;45732;52.850;6.896;2023-11-19T11:39:22;11.50;99.90
59855;DHT22;45732;52.850;6.896;2023-11-19T11:45:04;11.50;99.90
59855;DHT22;45732;52.850;6.896;2023-11-19T11:50:14;11.50;99.90
59855;DHT22;45732;52.850;6.896;2023-11-19T11:55:52;11.50;99.90
59855;DHT22;45732;52.850;6.896;2023-11-19T11:58:19;11.50;99.90
59855;DHT22;45732;52.850;6.896;2023-11-19T12:00:47;11.60;99.90
59855;DHT22;45732;52.850;6.896;2023-11-19T12:03:13;11.60;99.90
59855;DHT22;45732;52.850;6.896;2023-11-19T12:05:45;11.60;99.90
59855;DHT22;45732;52.850;6.896;2023-11-19T12:08:12;11.60;99.90
59855;DHT22;45732;52.850;6.896;2023-11-19T12:10:45;11.60;99.90
59855;DHT22;45732;52.850;6.896;2023-11-19T12:13:13;11.70;99.90
59855;DHT22;45732;52.850;6.896;2023-11-19T12:18:32;11.60;99.90
59855;DHT22;45732;52.850;6.896;2023-11-19T12:20:59;11.60;99.90
59855;DHT22;45732;52.850;6.896;2023-11-19T12:23:29;11.70;99.90
59855;DHT22;45732;52.850;6.896;2023-11-19T12:25:55;11.60;99.90
59855;DHT22;45732;52.850;6.896;2023-11-19T12:28:21;11.60;99.90
59855;DHT22;45732;52.850;6.896;2023-11-19T12:30:48;11.60;99.90
59855;DHT22;45732;52.850;6.896;2023-11-19T12:33:14;11.60;99.90
59855;DHT22;45732;52.850;6.896;2023-11-19T12:35:44;11.60;99.90
59855;DHT22;45732;52.850;6.896;2023-11-19T12:38:24;11.50;99.90
59855;DHT22;45732;52.850;6.896;2023-11-19T12:41:09;11.40;99.90
59855;DHT22;45732;52.850;6.896;2023-11-19T12:43:37;11.30;99.90
59855;DHT22;45732;52.850;6.896;2023-11-19T12:46:23;11.30;99.90
59855;DHT22;45732;52.850;6.896;2023-11-19T12:48:50;11.30;99.90
59855;DHT22;45732;52.850;6.896;2023-11-19T12:51:16;11.30;99.90
59855;DHT22;45732;52.850;6.896;2023-11-19T12:53:49;11.30;99.90
59855;DHT22;45732;52.850;6.896;2023-11-19T12:56:18;11.30;99.90
59855;DHT22;45732;52.850;6.896;2023-11-19T12:58:43;11.30;99.90
59855;DHT22;45732;52.850;6.896;2023-11-19T13:01:09;11.30;99.90
59855;DHT22;45732;52.850;6.896;2023-11-19T13:03:38;11.20;99.90
59855;DHT22;45732;52.850;6.896;2023-11-19T13:06:08;11.30;99.90
59855;DHT22;45732;52.850;6.896;2023-11-19T13:08:42;11.30;99.90
59855;DHT22;45732;52.850;6.896;2023-11-19T13:11:09;11.30;99.90
59855;DHT22;45732;52.850;6.896;2023-11-19T13:13:57;11.30;99.90
59855;DHT22;45732;52.850;6.896;2023-11-19T13:16:24;11.30;99.90
59855;DHT22;45732;52.850;6.896;2023-11-19T13:18:51;11.30;99.90
59855;DHT22;45732;52.850;6.896;2023-11-19T13:21:17;11.30;99.90
59855;DHT22;45732;52.850;6.896;2023-11-19T13:23:43;11.30;99.90
59855;DHT22;45732;52.850;6.896;2023-11-19T13:26:10;11.30;99.90
59855;DHT22;45732;52.850;6.896;2023-11-19T13:28:36;11.40;99.90
59855;DHT22;45732;52.850;6.896;2023-11-19T13:31:02;11.50;99.90
59855;DHT22;45732;52.850;6.896;2023-11-19T13:33:28;11.50;99.90
59855;DHT22;45732;52.850;6.896;2023-11-19T13:35:55;11.50;99.90
59855;DHT22;45732;52.850;6.896;2023-11-19T13:38:20;11.50;99.90
59855;DHT22;45732;52.850;6.896;2023-11-19T13:40:46;11.50;99.90
59855;DHT22;45732;52.850;6.896;2023-11-19T13:43:12;11.50;99.90
59855;DHT22;45732;52.850;6.896;2023-11-19T13:45:38;11.50;99.90
59855;DHT22;45732;52.850;6.896;2023-11-19T13:48:03;11.50;99.90
59855;DHT22;45732;52.850;6.896;2023-11-19T13:50:29;11.50;99.90
59855;DHT22;45732;52.850;6.896;2023-11-19T13:52:55;11.50;99.90
59855;DHT22;45732;52.850;6.896;2023-11-19T13:55:21;11.50;99.90
59855;DHT22;45732;52.850;6.896;2023-11-19T13:57:47;11.60;99.90
59855;DHT22;45732;52.850;6.896;2023-11-19T14:00:14;11.60;99.90
59855;DHT22;45732;52.850;6.896;2023-11-19T14:02:42;11.60;99.90
59855;DHT22;45732;52.850;6.896;2023-11-19T14:05:11;11.60;99.90
59855;DHT22;45732;52.850;6.896;2023-11-19T14:07:38;11.60;99.90
59855;DHT22;45732;52.850;6.896;2023-11-19T14:10:04;11.60;99.90
59855;DHT22;45732;52.850;6.896;2023-11-19T14:12:32;11.60;99.90
59855;DHT22;45732;52.850;6.896;2023-11-19T14:14:58;11.60;99.90
59855;DHT22;45732;52.850;6.896;2023-11-19T14:17:25;11.60;99.90
59855;DHT22;45732;52.850;6.896;2023-11-19T14:19:51;11.60;99.90
59855;DHT22;45732;52.850;6.896;2023-11-19T14:22:17;11.50;99.90
59855;DHT22;45732;52.850;6.896;2023-11-19T14:24:43;11.50;99.90
59855;DHT22;45732;52.850;6.896;2023-11-19T14:27:12;11.50;99.90
59855;DHT22;45732;52.850;6.896;2023-11-19T14:29:38;11.50;99.90
59855;DHT22;45732;52.850;6.896;2023-11-19T14:32:05;11.40;99.90
59855;DHT22;45732;52.850;6.896;2023-11-19T14:34:31;11.40;99.90
59855;DHT22;45732;52.850;6.896;2023-11-19T14:36:58;11.40;99.90
59855;DHT22;45732;52.850;6.896;2023-11-19T14:39:24;11.30;99.90
59855;DHT22;45732;52.850;6.896;2023-11-19T14:41:50;11.30;99.90
59855;DHT22;45732;52.850;6.896;2023-11-19T14:44:16;11.30;99.90
59855;DHT22;45732;52.850;6.896;2023-11-19T14:46:42;11.20;99.90
59855;DHT22;45732;52.850;6.896;2023-11-19T14:49:08;11.20;99.90
59855;DHT22;45732;52.850;6.896;2023-11-19T14:51:37;11.20;99.90
59855;DHT22;45732;52.850;6.896;2023-11-19T14:54:06;11.20;99.90
59855;DHT22;45732;52.850;6.896;2023-11-19T14:56:32;11.20;99.90
59855;DHT22;45732;52.850;6.896;2023-11-19T14:58:58;11.20;99.90
59855;DHT22;45732;52.850;6.896;2023-11-19T15:01:24;11.20;99.90
59855;DHT22;45732;52.850;6.896;2023-11-19T15:03:50;11.10;99.90
59855;DHT22;45732;52.850;6.896;2023-11-19T15:06:16;11.10;99.90
59855;DHT22;45732;52.850;6.896;2023-11-19T15:08:42;11.10;99.90
59855;DHT22;45732;52.850;6.896;2023-11-19T15:11:09;11.10;99.90
59855;DHT22;45732;52.850;6.896;2023-11-19T15:13:35;11.10;99.90
59855;DHT22;45732;52.850;6.896;2023-11-19T15:16:03;11.10;99.90
59855;DHT22;45732;52.850;6.896;2023-11-19T15:18:31;11.10;99.90
59855;DHT22;45732;52.850;6.896;2023-11-19T15:20:57;11.10;99.90
59855;DHT22;45732;52.850;6.896;2023-11-19T15:23:23;11.10;99.90
59855;DHT22;45732;52.850;6.896;2023-11-19T15:25:48;11.10;99.90
59855;DHT22;45732;52.850;6.896;2023-11-19T15:28:15;11.10;99.90
59855;DHT22;45732;52.850;6.896;2023-11-19T15:30:40;11.10;99.90
59855;DHT22;45732;52.850;6.896;2023-11-19T15:33:07;11.10;99.90
59855;DHT22;45732;52.850;6.896;2023-11-19T15:35:34;11.10;99.90
59855;DHT22;45732;52.850;6.896;2023-11-19T15:38:01;11.10;99.90
59855;DHT22;45732;52.850;6.896;2023-11-19T15:40:27;11.10;99.90
59855;DHT22;45732;52.850;6.896;2023-11-19T15:42:54;11.10;99.90
59855;DHT22;45732;52.850;6.896;2023-11-19T15:45:22;11.10;99.90
59855;DHT22;45732;52.850;6.896;2023-11-19T15:47:49;11.10;99.90
59855;DHT22;45732;52.850;6.896;2023-11-19T15:50:15;11.20;99.90
59855;DHT22;45732;52.850;6.896;2023-11-19T15:52:40;11.10;99.90